Time;durP1;ratioP1;P1;durP2;ratioP2;P2;SDS_P1;SDS_P2;PMS_P1;PMS_P2;Temp;Humidity;BMP_temperature;BMP_pressure;BME280_temperature;BME280_humidity;BME280_pressure;Samples;Min_cycle;Max_cycle;Signal;HPM_P1;HPM_P2
2021/05/22 00:01:40;;;;;;;6.10;3.53;;;11.80;1.00;;;;;;5044752;28;20515;-85
2021/05/22 00:04:09;;;;;;;5.70;2.93;;;11.70;1.00;;;;;;5048732;28;20473;-86
2021/05/22 00:06:36;;;;;;;7.90;4.30;;;11.70;1.00;;;;;;5040845;28;20456;-84
2021/05/22 00:09:03;;;;;;;7.07;3.30;;;11.70;1.00;;;;;;5058562;28;20479;-84
2021/05/22 00:11:29;;;;;;;8.20;3.80;;;11.60;1.00;;;;;;5067056;28;20522;-86
2021/05/22 00:13:56;;;;;;;6.37;3.63;;;11.60;1.00;;;;;;5066948;28;20435;-85
2021/05/22 00:16:23;;;;;;;4.50;3.27;;;11.60;1.00;;;;;;5064931;28;20493;-85
2021/05/22 00:18:50;;;;;;;6.33;3.57;;;11.60;1.00;;;;;;5070284;28;20415;-85
2021/05/22 00:21:18;;;;;;;5.50;3.47;;;11.50;1.00;;;;;;5068356;28;20447;-86
2021/05/22 00:23:46;;;;;;;8.40;3.90;;;11.50;1.00;;;;;;5072304;28;20473;-86
2021/05/22 00:26:12;;;;;;;6.67;2.83;;;11.50;1.00;;;;;;5056785;28;20463;-83
2021/05/22 00:28:38;;;;;;;7.53;3.33;;;11.50;1.00;;;;;;5066235;28;20509;-85
2021/05/22 00:31:04;;;;;;;6.83;4.07;;;11.50;1.00;;;;;;5066436;28;20280;-85
2021/05/22 00:33:31;;;;;;;5.47;4.00;;;11.50;1.00;;;;;;5069135;28;20408;-85
2021/05/22 00:35:57;;;;;;;5.73;4.17;;;11.40;1.00;;;;;;5064941;28;20471;-81
2021/05/22 00:38:24;;;;;;;5.25;3.97;;;11.40;1.00;;;;;;5063819;28;20412;-79
2021/05/22 00:40:50;;;;;;;4.07;3.77;;;11.40;1.00;;;;;;5065803;28;20259;-81
2021/05/22 00:43:17;;;;;;;6.07;3.73;;;11.40;1.00;;;;;;5061669;28;20408;-80
2021/05/22 00:45:45;;;;;;;7.55;3.95;;;11.40;1.00;;;;;;5048066;28;20435;-80
2021/05/22 00:48:12;;;;;;;6.07;3.13;;;11.40;1.00;;;;;;5059637;28;20229;-81
2021/05/22 00:50:43;;;;;;;6.87;3.60;;;11.50;1.00;;;;;;5064819;28;20435;-80
2021/05/22 00:53:10;;;;;;;3.53;3.10;;;11.50;1.00;;;;;;5059739;28;21337;-79
2021/05/22 00:55:37;;;;;;;5.17;3.20;;;11.40;1.00;;;;;;5063624;28;20415;-80
2021/05/22 00:58:05;;;;;;;5.22;2.90;;;11.40;1.00;;;;;;5064893;28;20534;-79
2021/05/22 01:00:40;;;;;;;4.40;3.00;;;11.40;1.00;;;;;;5080208;28;20209;-79
2021/05/22 01:03:08;;;;;;;8.13;3.37;;;11.40;1.00;;;;;;5045734;28;20454;-79
2021/05/22 01:05:36;;;;;;;6.23;3.80;;;11.40;1.00;;;;;;5079964;28;20463;-79
2021/05/22 01:08:15;;;;;;;7.80;3.30;;;11.40;1.00;;;;;;5078580;28;20404;-79
2021/05/22 01:10:43;;;;;;;4.90;2.97;;;11.40;1.00;;;;;;5076186;28;20238;-78
2021/05/22 01:13:12;;;;;;;4.33;3.43;;;11.40;1.00;;;;;;5074615;28;20454;-79
2021/05/22 01:15:42;;;;;;;3.40;2.90;;;11.30;1.00;;;;;;5069578;28;20463;-81
2021/05/22 01:18:09;;;;;;;6.07;3.10;;;11.30;1.00;;;;;;5061423;28;20488;-79
2021/05/22 01:20:40;;;;;;;7.23;3.57;;;11.30;1.00;;;;;;5066269;28;20436;-79
2021/05/22 01:23:10;;;;;;;5.70;3.43;;;11.30;1.00;;;;;;5036976;28;20419;-81
2021/05/22 01:25:39;;;;;;;6.90;3.30;;;11.30;1.00;;;;;;5058972;28;21382;-79
2021/05/22 01:28:07;;;;;;;4.95;3.72;;;11.30;1.00;;;;;;5066023;28;20459;-80
2021/05/22 01:30:34;;;;;;;6.10;3.33;;;11.30;1.00;;;;;;5076869;28;20258;-80
2021/05/22 01:33:00;;;;;;;3.83;2.87;;;11.20;1.00;;;;;;5069508;28;20503;-81
2021/05/22 01:35:27;;;;;;;5.07;2.83;;;11.20;1.00;;;;;;5070303;28;20475;-80
2021/05/22 01:37:54;;;;;;;5.40;2.97;;;11.20;1.00;;;;;;5075568;28;20256;-80
2021/05/22 01:40:20;;;;;;;8.80;2.80;;;11.20;1.00;;;;;;5057505;28;20598;-80
2021/05/22 01:42:47;;;;;;;5.70;2.78;;;11.10;1.00;;;;;;5043996;28;20504;-80
2021/05/22 01:45:17;;;;;;;4.55;2.47;;;11.10;1.00;;;;;;5065289;28;20221;-80
2021/05/22 01:47:45;;;;;;;4.63;3.13;;;11.10;1.00;;;;;;5063412;28;20300;-82
2021/05/22 01:50:13;;;;;;;4.63;2.70;;;11.10;1.00;;;;;;5058684;28;20455;-81
2021/05/22 01:52:43;;;;;;;3.80;2.73;;;11.00;1.00;;;;;;5061316;28;20464;-82
2021/05/22 01:55:11;;;;;;;9.17;2.90;;;11.10;1.00;;;;;;5060028;28;20912;-80
2021/05/22 01:57:39;;;;;;;5.93;2.83;;;11.10;1.00;;;;;;5062429;28;21108;-82
2021/05/22 02:00:08;;;;;;;4.73;3.20;;;11.10;1.00;;;;;;5059757;28;20430;-81
2021/05/22 02:02:35;;;;;;;4.43;3.33;;;11.10;1.00;;;;;;5066366;28;20509;-81
2021/05/22 02:05:04;;;;;;;4.53;3.20;;;11.00;1.00;;;;;;5067384;28;21161;-80
2021/05/22 02:07:34;;;;;;;5.03;3.00;;;11.00;1.00;;;;;;5067359;28;20450;-80
2021/05/22 02:10:01;;;;;;;2.97;2.73;;;11.10;1.00;;;;;;5075418;28;20453;-79
2021/05/22 02:12:28;;;;;;;7.77;3.00;;;11.00;1.00;;;;;;5078327;28;20497;-80
2021/05/22 02:14:56;;;;;;;4.90;2.63;;;11.00;1.00;;;;;;5057956;28;20533;-80
2021/05/22 02:17:25;;;;;;;7.80;2.88;;;11.00;1.00;;;;;;5047617;28;20435;-79
2021/05/22 02:19:54;;;;;;;4.23;3.17;;;11.00;1.00;;;;;;5059939;28;20288;-80
2021/05/22 02:22:22;;;;;;;3.30;2.93;;;11.00;1.00;;;;;;5064372;28;20438;-81
2021/05/22 02:24:50;;;;;;;6.38;3.17;;;11.00;1.00;;;;;;5063053;28;20914;-79
2021/05/22 02:27:16;;;;;;;4.43;2.83;;;11.00;1.00;;;;;;5060070;28;20259;-82
2021/05/22 02:29:45;;;;;;;4.10;3.10;;;11.00;1.00;;;;;;5067194;28;20221;-79
2021/05/22 02:32:12;;;;;;;7.40;2.90;;;11.00;1.00;;;;;;5064842;28;20247;-79
2021/05/22 02:34:46;;;;;;;9.20;2.90;;;11.00;1.00;;;;;;5067697;28;20519;-81
2021/05/22 02:37:15;;;;;;;2.90;2.30;;;11.00;1.00;;;;;;5062590;28;20226;-79
2021/05/22 02:39:44;;;;;;;6.23;2.70;;;11.10;1.00;;;;;;5046644;28;20478;-81
2021/05/22 02:42:14;;;;;;;4.90;2.50;;;11.10;1.00;;;;;;5060506;28;20461;-80
2021/05/22 02:44:43;;;;;;;5.70;3.57;;;11.10;1.00;;;;;;5060828;28;21309;-80
2021/05/22 02:47:10;;;;;;;3.73;2.67;;;11.10;1.00;;;;;;5063806;28;20519;-80
2021/05/22 02:49:41;;;;;;;4.07;2.97;;;11.00;1.00;;;;;;5062956;28;20425;-81
2021/05/22 02:52:10;;;;;;;5.80;2.50;;;11.10;1.00;;;;;;5062925;28;20419;-81
2021/05/22 02:54:40;;;;;;;3.43;2.90;;;11.00;1.00;;;;;;5064486;28;20470;-82
2021/05/22 02:57:10;;;;;;;3.43;2.90;;;11.10;1.00;;;;;;5063735;28;20418;-79
2021/05/22 02:59:36;;;;;;;5.27;3.00;;;11.10;1.00;;;;;;5062720;28;20466;-80
2021/05/22 03:02:03;;;;;;;3.63;2.80;;;11.10;1.00;;;;;;5061792;28;20462;-80
2021/05/22 03:04:31;;;;;;;5.80;3.03;;;11.10;1.00;;;;;;5065984;28;20465;-82
2021/05/22 03:07:00;;;;;;;4.23;2.77;;;11.10;1.00;;;;;;5060886;28;20506;-81
2021/05/22 03:09:27;;;;;;;2.70;2.30;;;11.10;1.00;;;;;;5066482;28;20465;-82
2021/05/22 03:11:53;;;;;;;5.00;2.87;;;11.10;1.00;;;;;;5064973;28;20472;-81
2021/05/22 03:14:19;;;;;;;4.97;2.93;;;11.20;1.00;;;;;;5067119;28;21358;-80
2021/05/22 03:16:45;;;;;;;3.60;2.58;;;11.20;1.00;;;;;;5048703;28;20538;-82
2021/05/22 03:19:12;;;;;;;3.10;2.90;;;11.20;1.00;;;;;;5065746;28;20231;-80
2021/05/22 03:21:38;;;;;;;5.20;3.50;;;11.20;1.00;;;;;;5065708;28;20451;-79
2021/05/22 03:24:06;;;;;;;6.87;2.40;;;11.20;1.00;;;;;;5065022;28;20502;-79
2021/05/22 03:26:33;;;;;;;2.65;2.45;;;11.20;1.00;;;;;;5064241;28;20557;-80
2021/05/22 03:28:59;;;;;;;4.87;2.90;;;11.20;1.00;;;;;;5064057;28;20225;-79
2021/05/22 03:31:26;;;;;;;4.23;2.70;;;11.20;1.00;;;;;;5075455;28;20463;-82
2021/05/22 03:33:52;;;;;;;6.27;2.93;;;11.20;1.00;;;;;;5068872;28;20435;-81
2021/05/22 03:36:18;;;;;;;5.23;2.50;;;11.30;1.00;;;;;;5067471;28;20442;-82
2021/05/22 03:38:44;;;;;;;4.40;3.07;;;11.30;1.00;;;;;;5073236;28;20433;-80
2021/05/22 03:41:11;;;;;;;5.07;3.10;;;11.40;1.00;;;;;;5091592;28;20415;-79
2021/05/22 03:43:37;;;;;;;6.43;3.20;;;11.40;1.00;;;;;;5090138;28;20470;-79
2021/05/22 03:46:04;;;;;;;7.80;2.90;;;11.50;1.00;;;;;;5090459;28;20448;-79
2021/05/22 03:48:32;;;;;;;5.90;3.27;;;11.50;1.00;;;;;;5089632;28;20454;-79
2021/05/22 03:50:58;;;;;;;5.40;2.80;;;11.60;1.00;;;;;;5089849;28;20399;-79
2021/05/22 03:53:25;;;;;;;3.20;2.90;;;11.70;1.00;;;;;;5085919;28;20426;-79
2021/05/22 03:55:51;;;;;;;4.70;3.10;;;11.70;1.00;;;;;;5086474;28;20436;-80
2021/05/22 03:58:18;;;;;;;5.63;3.10;;;11.80;1.00;;;;;;5078589;28;20471;-80
2021/05/22 04:00:45;;;;;;;7.90;3.10;;;11.80;1.00;;;;;;5059554;28;20492;-81
2021/05/22 04:03:11;;;;;;;2.83;2.50;;;11.90;1.00;;;;;;5065461;28;20428;-81
2021/05/22 04:05:37;;;;;;;4.23;2.83;;;11.90;1.00;;;;;;5062090;28;20435;-80
2021/05/22 04:08:04;;;;;;;3.30;3.00;;;11.90;1.00;;;;;;5066659;28;20447;-80
2021/05/22 04:10:30;;;;;;;3.63;3.13;;;11.90;1.00;;;;;;5056933;28;21142;-78
2021/05/22 04:12:57;;;;;;;3.90;2.90;;;11.90;1.00;;;;;;5061343;28;20467;-81
2021/05/22 04:15:24;;;;;;;3.23;2.60;;;12.00;1.00;;;;;;5035827;28;20446;-80
2021/05/22 04:17:50;;;;;;;4.40;3.10;;;12.10;1.00;;;;;;5044136;28;21017;-79
2021/05/22 04:20:16;;;;;;;3.70;3.10;;;12.20;1.00;;;;;;5034872;28;20443;-79
2021/05/22 04:22:43;;;;;;;3.37;2.73;;;12.20;1.00;;;;;;5056650;28;20543;-80
2021/05/22 04:25:11;;;;;;;4.73;2.93;;;12.20;1.00;;;;;;5055218;28;20506;-80
2021/05/22 04:27:37;;;;;;;6.77;2.83;;;12.30;1.00;;;;;;5058449;28;20435;-78
2021/05/22 04:30:05;;;;;;;3.63;2.77;;;12.40;1.00;;;;;;5058542;28;20455;-80
2021/05/22 04:32:32;;;;;;;3.10;2.63;;;12.40;1.00;;;;;;5059997;28;20468;-81
2021/05/22 04:34:58;;;;;;;4.73;4.10;;;12.50;1.00;;;;;;5055664;28;20447;-80
2021/05/22 04:37:24;;;;;;;2.87;2.40;;;12.50;1.00;;;;;;5057510;28;20783;-80
2021/05/22 04:39:51;;;;;;;5.43;2.40;;;12.40;1.00;;;;;;5055793;28;20538;-80
2021/05/22 04:42:17;;;;;;;2.70;2.50;;;12.40;1.00;;;;;;5055579;28;21342;-82
2021/05/22 04:44:43;;;;;;;3.10;2.53;;;12.50;1.00;;;;;;5040292;28;20435;-81
2021/05/22 04:47:09;;;;;;;6.70;2.60;;;12.50;1.00;;;;;;5046637;28;20531;-79
2021/05/22 04:49:38;;;;;;;4.13;2.70;;;12.60;1.00;;;;;;5040653;28;20455;-81
2021/05/22 04:52:04;;;;;;;3.40;2.10;;;12.70;1.00;;;;;;5058901;28;20506;-81
2021/05/22 04:54:30;;;;;;;2.57;2.00;;;12.80;1.00;;;;;;5062537;28;20460;-80
2021/05/22 04:56:57;;;;;;;2.40;1.93;;;13.00;1.00;;;;;;5069733;28;20997;-79
2021/05/22 04:59:23;;;;;;;2.77;2.57;;;13.10;1.00;;;;;;5080325;28;20511;-79
2021/05/22 05:01:49;;;;;;;4.03;2.30;;;13.20;1.00;;;;;;5061952;28;20498;-80
2021/05/22 05:04:16;;;;;;;4.33;2.23;;;13.20;1.00;;;;;;5064422;28;20412;-82
2021/05/22 05:06:43;;;;;;;2.23;2.03;;;13.20;1.00;;;;;;5060514;28;20524;-81
2021/05/22 05:09:09;;;;;;;5.07;2.13;;;13.20;1.00;;;;;;5059984;28;21385;-79
2021/05/22 05:11:36;;;;;;;3.50;2.57;;;13.20;1.00;;;;;;5059200;28;20542;-81
2021/05/22 05:14:02;;;;;;;4.23;2.73;;;13.20;1.00;;;;;;5057627;28;21242;-80
2021/05/22 05:16:28;;;;;;;2.60;2.40;;;13.30;1.00;;;;;;5062519;28;20487;-80
2021/05/22 05:18:55;;;;;;;3.07;2.77;;;13.40;1.00;;;;;;5056787;28;20456;-80
2021/05/22 05:21:21;;;;;;;2.43;2.23;;;13.50;1.00;;;;;;5058503;28;21425;-79
2021/05/22 05:23:48;;;;;;;2.83;1.90;;;13.60;1.00;;;;;;5061056;28;20539;-81
2021/05/22 05:26:15;;;;;;;3.10;2.37;;;13.60;1.00;;;;;;5059467;28;21433;-80
2021/05/22 05:28:41;;;;;;;8.50;3.40;;;13.70;1.00;;;;;;5063564;28;20470;-82
2021/05/22 05:31:07;;;;;;;3.13;2.40;;;13.80;1.00;;;;;;5062796;28;20543;-79
2021/05/22 05:33:33;;;;;;;3.10;2.50;;;14.00;1.00;;;;;;5041656;28;20436;-80
2021/05/22 05:35:59;;;;;;;2.33;2.00;;;14.10;1.00;;;;;;5062837;28;21058;-80
2021/05/22 05:38:26;;;;;;;2.10;1.97;;;14.20;1.00;;;;;;5059026;28;20448;-79
2021/05/22 05:40:54;;;;;;;2.90;2.70;;;14.20;1.00;;;;;;5060043;28;20508;-79
2021/05/22 05:43:20;;;;;;;3.40;2.97;;;14.20;1.00;;;;;;5053987;28;20803;-80
2021/05/22 05:45:47;;;;;;;2.90;2.10;;;14.20;1.00;;;;;;5066913;28;20520;-81
2021/05/22 05:48:14;;;;;;;4.17;2.23;;;14.20;1.00;;;;;;5061912;28;20399;-81
2021/05/22 05:50:40;;;;;;;3.73;2.00;;;14.10;1.00;;;;;;5068728;28;20455;-80
2021/05/22 05:53:07;;;;;;;2.77;2.10;;;14.00;1.00;;;;;;5060867;28;20478;-79
2021/05/22 05:55:33;;;;;;;2.33;2.13;;;13.90;1.00;;;;;;5066428;28;20474;-80
2021/05/22 05:58:00;;;;;;;2.53;2.07;;;13.80;1.00;;;;;;5045562;28;20516;-79
2021/05/22 06:00:26;;;;;;;4.73;2.63;;;13.60;1.00;;;;;;5062973;28;20581;-78
2021/05/22 06:02:53;;;;;;;4.07;2.70;;;13.20;1.00;;;;;;5066673;28;20474;-80
2021/05/22 06:05:19;;;;;;;3.73;2.47;;;12.90;1.00;;;;;;5164657;22;20411;-85
2021/05/22 06:07:45;;;;;;;3.07;2.73;;;12.60;1.00;;;;;;5041609;28;20458;-85
2021/05/22 06:10:13;;;;;;;4.73;3.10;;;12.50;1.00;;;;;;5043257;28;20452;-85
2021/05/22 06:12:40;;;;;;;3.53;3.23;;;12.30;1.00;;;;;;5047399;28;21384;-85
2021/05/22 06:15:21;;;;;;;6.13;2.20;;;12.20;1.00;;;;;;5047126;28;21082;-84
2021/05/22 06:17:48;;;;;;;4.17;3.37;;;12.30;1.00;;;;;;5044853;28;20477;-87
2021/05/22 06:20:14;;;;;;;3.50;3.00;;;12.30;1.00;;;;;;5047849;28;20427;-84
2021/05/22 06:22:41;;;;;;;4.30;3.67;;;12.30;1.00;;;;;;5046546;28;20484;-85
2021/05/22 06:25:09;;;;;;;3.90;3.20;;;12.30;1.00;;;;;;5054772;28;20440;-84
2021/05/22 06:27:36;;;;;;;4.30;3.03;;;12.20;1.00;;;;;;5041114;28;20493;-84
2021/05/22 06:30:03;;;;;;;5.93;3.10;;;12.30;1.00;;;;;;5039752;28;20572;-83
2021/05/22 06:32:30;;;;;;;3.00;2.70;;;12.40;1.00;;;;;;5041849;28;20449;-84
2021/05/22 06:34:56;;;;;;;6.63;3.80;;;12.40;1.00;;;;;;5045586;28;20455;-83
2021/05/22 06:37:25;;;;;;;3.30;2.83;;;12.40;1.00;;;;;;5043613;28;20492;-85
2021/05/22 06:39:51;;;;;;;3.93;2.63;;;12.40;1.00;;;;;;5041866;28;20461;-86
2021/05/22 06:42:18;;;;;;;3.80;3.20;;;12.50;1.00;;;;;;5036952;28;20449;-84
2021/05/22 06:44:50;;;;;;;3.83;2.80;;;12.60;1.00;;;;;;5047195;28;20417;-85
2021/05/22 06:47:17;;;;;;;3.90;2.90;;;12.70;1.00;;;;;;5048841;28;20459;-84
2021/05/22 06:49:44;;;;;;;2.97;2.77;;;12.80;1.00;;;;;;5045068;28;20456;-83
2021/05/22 06:52:11;;;;;;;3.63;2.90;;;13.00;1.00;;;;;;5041243;28;20451;-83
2021/05/22 06:54:40;;;;;;;4.17;2.70;;;13.30;1.00;;;;;;5029173;28;20418;-84
2021/05/22 06:57:07;;;;;;;2.63;2.43;;;13.60;1.00;;;;;;5027333;28;20492;-82
2021/05/22 06:59:34;;;;;;;3.90;2.67;;;13.90;1.00;;;;;;5042901;28;21738;-80
2021/05/22 07:02:01;;;;;;;3.13;2.83;;;14.20;1.00;;;;;;5046139;28;20460;-83
2021/05/22 07:04:28;;;;;;;2.53;2.30;;;14.30;1.00;;;;;;5043702;28;20880;-83
2021/05/22 07:06:55;;;;;;;2.50;2.30;;;14.40;1.00;;;;;;5045494;28;20411;-84
2021/05/22 07:09:22;;;;;;;2.50;2.30;;;14.50;1.00;;;;;;5042932;28;20692;-84
2021/05/22 07:11:48;;;;;;;3.73;3.30;;;14.70;1.00;;;;;;5037238;28;20593;-82
2021/05/22 07:14:15;;;;;;;2.40;2.20;;;14.70;1.00;;;;;;5044234;28;20457;-85
2021/05/22 07:16:41;;;;;;;5.83;2.40;;;14.90;1.00;;;;;;5042038;28;20476;-85
2021/05/22 07:19:07;;;;;;;2.33;1.90;;;14.90;1.00;;;;;;5046122;28;20516;-84
2021/05/22 07:21:34;;;;;;;3.40;2.27;;;14.80;1.00;;;;;;5043102;28;20429;-85
2021/05/22 07:24:04;;;;;;;4.03;1.73;;;14.80;1.00;;;;;;5044830;28;20539;-84
2021/05/22 07:26:30;;;;;;;3.13;1.97;;;14.90;1.00;;;;;;5039355;28;20452;-85
2021/05/22 07:28:56;;;;;;;3.00;2.37;;;15.20;1.00;;;;;;5025591;28;20475;-84
2021/05/22 07:31:24;;;;;;;2.83;1.97;;;15.40;1.00;;;;;;5043573;28;20540;-84
2021/05/22 07:33:51;;;;;;;4.40;2.37;;;15.50;1.00;;;;;;5025865;28;20480;-84
2021/05/22 07:36:19;;;;;;;2.20;1.57;;;15.40;1.00;;;;;;5050139;28;20487;-89
2021/05/22 07:43:10;;;;;;;2.60;2.17;;;15.40;1.00;;;;;;4865808;29;20449;-90
2021/05/22 07:58:45;;;;;;;;;;;;;;;;;;;;;
2021/05/22 08:08:24;;;;;;;2.57;1.30;;;16.20;1.00;;;;;;4984565;28;20624;-88
2021/05/22 08:11:03;;;;;;;3.33;1.60;;;16.20;1.00;;;;;;5009719;28;20521;-88
2021/05/22 08:14:25;;;;;;;3.23;1.30;;;15.90;1.00;;;;;;5044131;28;20421;-89
2021/05/22 08:27:01;;;;;;;2.20;1.53;;;16.40;1.00;;;;;;4974360;28;20643;-87
2021/05/22 08:41:18;;;;;;;2.50;1.20;;;16.20;1.00;;;;;;4929181;28;21299;-81
2021/05/22 08:43:44;;;;;;;7.73;1.80;;;16.30;1.00;;;;;;5007254;28;20533;-83
2021/05/22 08:46:13;;;;;;;5.20;1.33;;;16.40;1.00;;;;;;5043063;28;20477;-83
2021/05/22 08:48:40;;;;;;;3.40;1.40;;;16.50;1.00;;;;;;5045627;28;20441;-82
2021/05/22 08:51:07;;;;;;;2.20;1.27;;;16.60;1.00;;;;;;5049177;28;21257;-83
2021/05/22 08:53:35;;;;;;;1.53;1.20;;;16.60;1.00;;;;;;5050064;28;20493;-83
2021/05/22 08:56:02;;;;;;;4.20;1.20;;;16.70;1.00;;;;;;5048460;28;20410;-83
2021/05/22 08:58:28;;;;;;;1.83;1.17;;;16.80;1.00;;;;;;5050682;28;20548;-84
2021/05/22 09:00:57;;;;;;;6.23;2.50;;;17.00;1.00;;;;;;5053976;28;20469;-82
2021/05/22 09:03:23;;;;;;;2.80;1.60;;;17.10;1.00;;;;;;5057829;28;20471;-83
2021/05/22 09:05:50;;;;;;;4.13;2.00;;;17.40;1.00;;;;;;5050383;28;20439;-83
2021/05/22 09:08:18;;;;;;;6.80;2.00;;;17.50;1.00;;;;;;5047718;28;20467;-84
2021/05/22 09:10:47;;;;;;;3.10;1.53;;;17.60;1.00;;;;;;5031814;28;20443;-84
2021/05/22 09:13:19;;;;;;;2.10;1.57;;;17.70;1.00;;;;;;5044066;28;20629;-82
2021/05/22 09:15:47;;;;;;;2.13;1.23;;;17.90;1.00;;;;;;5048570;28;20416;-83
2021/05/22 09:18:17;;;;;;;2.37;1.20;;;18.10;1.00;;;;;;5043412;28;20484;-83
2021/05/22 09:20:46;;;;;;;3.30;1.13;;;18.40;1.00;;;;;;5048680;28;20460;-83
2021/05/22 09:23:15;;;;;;;9.37;2.10;;;18.30;1.00;;;;;;5061446;22;21055;-78
2021/05/22 09:25:45;;;;;;;3.03;1.43;;;18.30;1.00;;;;;;5044969;28;20424;-77
2021/05/22 09:28:15;;;;;;;2.03;1.37;;;18.30;1.00;;;;;;5041846;28;20470;-78
2021/05/22 09:30:42;;;;;;;5.47;1.33;;;18.50;1.00;;;;;;5039091;28;20448;-78
2021/05/22 09:33:12;;;;;;;4.00;1.53;;;19.10;1.00;;;;;;5038177;28;21835;-78
2021/05/22 09:35:39;;;;;;;3.57;1.83;;;19.60;1.00;;;;;;5026946;28;20445;-78
2021/05/22 09:38:06;;;;;;;3.20;1.20;;;20.50;1.00;;;;;;5024308;28;20514;-78
2021/05/22 09:40:34;;;;;;;5.30;1.23;;;21.70;1.00;;;;;;5024601;28;20465;-79
2021/05/22 09:43:03;;;;;;;2.23;1.20;;;21.50;1.00;;;;;;5020755;28;20545;-78
2021/05/22 09:45:35;;;;;;;3.87;1.10;;;20.60;1.00;;;;;;5022021;28;20537;-78
2021/05/22 09:48:13;;;;;;;3.47;2.13;;;20.70;1.00;;;;;;5021285;28;21374;-78
2021/05/22 09:50:41;;;;;;;2.60;1.30;;;20.80;1.00;;;;;;5025199;28;21778;-78
2021/05/22 09:53:22;;;;;;;2.73;1.37;;;20.50;1.00;;;;;;5020865;28;20465;-77
2021/05/22 09:56:12;;;;;;;2.83;1.30;;;20.70;1.00;;;;;;5024917;28;20419;-79
2021/05/22 09:58:40;;;;;;;2.83;1.27;;;21.60;1.00;;;;;;5019735;28;20448;-77
2021/05/22 10:01:08;;;;;;;2.50;1.50;;;22.70;1.00;;;;;;5026128;28;20433;-78
2021/05/22 10:03:34;;;;;;;4.00;1.27;;;23.40;1.00;;;;;;5029345;28;20431;-75
2021/05/22 10:06:01;;;;;;;3.10;1.13;;;23.60;1.00;;;;;;5015824;28;20459;-76
2021/05/22 10:08:27;;;;;;;4.00;1.47;;;24.30;1.00;;;;;;5017221;28;20447;-78
2021/05/22 10:10:56;;;;;;;1.67;0.90;;;25.10;1.00;;;;;;5019659;28;21159;-78
2021/05/22 10:13:24;;;;;;;3.00;1.17;;;25.40;1.00;;;;;;5023141;28;20431;-78
2021/05/22 10:15:51;;;;;;;6.17;1.70;;;24.20;1.00;;;;;;5021501;28;20442;-78
2021/05/22 10:18:20;;;;;;;3.00;1.23;;;23.40;1.00;;;;;;5022202;28;20436;-77
2021/05/22 10:20:46;;;;;;;2.33;1.13;;;22.50;1.00;;;;;;5020935;28;20452;-78
2021/05/22 10:23:13;;;;;;;2.50;1.00;;;21.90;1.00;;;;;;5018231;28;20443;-78
2021/05/22 10:25:40;;;;;;;5.40;1.97;;;21.70;1.00;;;;;;5016647;28;20448;-79
2021/05/22 10:28:08;;;;;;;9.20;1.27;;;21.40;1.00;;;;;;5022266;28;20484;-78
2021/05/22 10:30:35;;;;;;;4.70;1.80;;;22.00;1.00;;;;;;5023241;28;20541;-78
2021/05/22 10:33:03;;;;;;;2.63;1.23;;;22.00;1.00;;;;;;5023539;28;20455;-78
2021/05/22 10:35:40;;;;;;;6.10;1.30;;;21.60;1.00;;;;;;5018122;28;23650;-77
2021/05/22 10:38:06;;;;;;;2.17;1.80;;;20.80;1.00;;;;;;5024605;28;20422;-79
2021/05/22 10:40:50;;;;;;;2.53;2.07;;;20.00;1.00;;;;;;5023468;28;20465;-78
2021/05/22 10:43:17;;;;;;;2.47;1.30;;;19.40;1.00;;;;;;5025944;28;20465;-78
2021/05/22 10:45:44;;;;;;;2.93;1.20;;;19.20;1.00;;;;;;5017940;28;20431;-77
2021/05/22 10:48:44;;;;;;;2.80;1.17;;;18.80;1.00;;;;;;5019993;28;20482;-78
2021/05/22 10:51:33;;;;;;;3.37;1.60;;;18.50;1.00;;;;;;5020217;28;20419;-78
2021/05/22 10:54:01;;;;;;;3.00;1.70;;;18.00;1.00;;;;;;5024397;28;20472;-77
2021/05/22 10:56:27;;;;;;;2.27;1.60;;;17.70;1.00;;;;;;5023342;28;20509;-79
2021/05/22 10:59:14;;;;;;;2.57;1.40;;;17.40;1.00;;;;;;5023139;28;20458;-79
2021/05/22 11:01:43;;;;;;;3.33;1.57;;;16.80;1.00;;;;;;5020048;28;20408;-79
2021/05/22 11:04:34;;;;;;;4.33;1.90;;;16.70;1.00;;;;;;5020551;28;20451;-80
2021/05/22 11:07:23;;;;;;;5.53;1.33;;;16.90;1.00;;;;;;5020244;28;20496;-79
2021/05/22 11:09:55;;;;;;;4.30;1.70;;;17.10;1.00;;;;;;5019759;28;20451;-78
2021/05/22 11:12:44;;;;;;;3.70;1.67;;;17.30;1.00;;;;;;5019644;28;20460;-79
2021/05/22 11:15:50;;;;;;;4.87;2.90;;;17.60;1.00;;;;;;5022301;28;21342;-78
2021/05/22 11:18:24;;;;;;;1.77;1.50;;;18.00;1.00;;;;;;5013508;28;20454;-77
2021/05/22 11:21:15;;;;;;;2.60;1.27;;;18.20;1.00;;;;;;5014397;28;21195;-78
2021/05/22 11:24:02;;;;;;;2.30;1.10;;;18.50;1.00;;;;;;5016250;28;20432;-78
2021/05/22 11:26:58;;;;;;;4.63;1.70;;;18.60;1.00;;;;;;5015206;28;20435;-78
2021/05/22 11:29:52;;;;;;;5.20;1.60;;;18.80;1.00;;;;;;5015155;28;20442;-77
2021/05/22 11:32:59;;;;;;;3.13;1.20;;;18.50;1.00;;;;;;5013720;28;20456;-79
2021/05/22 11:35:34;;;;;;;3.43;1.40;;;18.10;1.00;;;;;;5018334;28;20467;-78
2021/05/22 11:38:32;;;;;;;4.70;1.70;;;17.70;1.00;;;;;;5001231;28;20595;-76
2021/05/22 11:41:00;;;;;;;4.67;1.63;;;17.40;1.00;;;;;;5016919;28;20729;-78
2021/05/22 11:43:31;;;;;;;2.53;1.07;;;17.30;1.00;;;;;;5014784;28;20479;-76
2021/05/22 11:46:00;;;;;;;4.60;0.97;;;17.40;1.00;;;;;;5015258;28;20544;-78
2021/05/22 11:48:28;;;;;;;3.13;1.23;;;17.90;1.00;;;;;;5017580;28;20499;-79
2021/05/22 11:51:06;;;;;;;2.40;1.37;;;19.10;1.00;;;;;;5015994;28;20504;-77
2021/05/22 11:53:33;;;;;;;3.87;1.50;;;19.30;1.00;;;;;;4996623;28;20464;-78
2021/05/22 11:56:02;;;;;;;4.17;1.60;;;19.00;1.00;;;;;;5013088;28;20464;-77
2021/05/22 11:58:30;;;;;;;4.67;1.20;;;18.60;1.00;;;;;;5020325;28;20456;-77
2021/05/22 12:01:07;;;;;;;3.03;1.67;;;17.90;1.00;;;;;;5015783;28;21172;-77
2021/05/22 12:03:33;;;;;;;3.37;1.37;;;17.80;1.00;;;;;;5013762;28;20508;-77
2021/05/22 12:05:59;;;;;;;3.57;1.50;;;18.00;1.00;;;;;;5012920;28;20572;-76
2021/05/22 12:08:28;;;;;;;4.33;1.60;;;20.10;1.00;;;;;;5009711;28;20486;-75
2021/05/22 12:10:54;;;;;;;3.17;0.90;;;21.40;1.00;;;;;;5012097;28;20442;-79
2021/05/22 12:13:22;;;;;;;2.10;1.20;;;20.30;1.00;;;;;;5007430;28;20441;-79
2021/05/22 12:15:49;;;;;;;3.33;1.20;;;19.40;1.00;;;;;;5014585;28;20566;-78
2021/05/22 12:18:16;;;;;;;3.30;1.70;;;18.80;1.00;;;;;;5020656;28;20448;-79
2021/05/22 12:20:47;;;;;;;3.70;1.50;;;18.80;1.00;;;;;;4999640;28;20497;-81
2021/05/22 12:23:24;;;;;;;5.33;1.33;;;19.30;1.00;;;;;;5017274;28;20977;-77
2021/05/22 12:25:51;;;;;;;2.47;0.90;;;19.80;1.00;;;;;;5023251;28;20434;-80
2021/05/22 12:28:18;;;;;;;3.33;1.63;;;19.80;1.00;;;;;;5015568;28;20656;-80
2021/05/22 12:30:45;;;;;;;3.93;1.10;;;21.00;1.00;;;;;;5026873;28;20903;-79
2021/05/22 12:33:13;;;;;;;5.60;1.27;;;20.80;1.00;;;;;;5027871;28;20434;-80
2021/05/22 12:35:39;;;;;;;3.50;1.00;;;20.30;1.00;;;;;;5021931;28;20413;-80
2021/05/22 12:38:06;;;;;;;6.17;1.60;;;20.50;1.00;;;;;;5025980;28;20563;-78
2021/05/22 12:40:45;;;;;;;5.20;1.40;;;20.70;1.00;;;;;;5025677;28;20445;-78
2021/05/22 12:43:11;;;;;;;5.47;1.40;;;20.10;1.00;;;;;;5029156;28;20414;-83
2021/05/22 12:45:37;;;;;;;3.10;1.20;;;19.50;1.00;;;;;;5025952;28;20481;-80
2021/05/22 12:48:20;;;;;;;5.00;1.43;;;19.30;1.00;;;;;;5027325;28;20465;-80
2021/05/22 12:50:46;;;;;;;2.10;1.00;;;18.90;1.00;;;;;;5021705;28;20422;-81
2021/05/22 12:53:12;;;;;;;4.93;1.13;;;18.90;1.00;;;;;;5025101;28;20463;-81
2021/05/22 12:55:39;;;;;;;2.13;1.30;;;18.70;1.00;;;;;;5018268;28;20404;-78
2021/05/22 12:58:20;;;;;;;3.47;1.20;;;18.60;1.00;;;;;;5012435;28;20472;-79
2021/05/22 13:00:50;;;;;;;6.53;1.60;;;18.60;1.00;;;;;;5023249;28;20472;-80
2021/05/22 13:03:34;;;;;;;7.13;1.47;;;18.50;1.00;;;;;;5021363;28;20437;-78
2021/05/22 13:06:01;;;;;;;3.17;1.03;;;18.40;1.00;;;;;;5015745;28;21190;-80
2021/05/22 13:08:27;;;;;;;5.03;1.00;;;18.80;1.00;;;;;;5020609;28;20428;-80
2021/05/22 13:10:53;;;;;;;4.70;0.83;;;20.30;1.00;;;;;;5012378;28;20513;-78
2021/05/22 13:13:20;;;;;;;2.60;0.90;;;21.60;1.00;;;;;;5017884;28;20467;-81
2021/05/22 13:15:48;;;;;;;2.60;0.90;;;21.90;1.00;;;;;;5018070;28;20455;-78
2021/05/22 13:18:15;;;;;;;3.63;1.00;;;22.50;1.00;;;;;;5015527;28;20492;-79
2021/05/22 13:20:45;;;;;;;2.53;1.10;;;23.70;1.00;;;;;;5020109;28;20558;-79
2021/05/22 13:23:19;;;;;;;8.63;1.37;;;25.00;1.00;;;;;;5010015;28;20472;-79
2021/05/22 13:25:47;;;;;;;2.50;1.40;;;24.70;1.00;;;;;;5018190;28;20495;-84
2021/05/22 13:28:18;;;;;;;3.07;1.27;;;24.50;1.00;;;;;;5015810;28;20470;-80
2021/05/22 13:30:47;;;;;;;5.03;1.57;;;23.40;1.00;;;;;;5016876;28;20440;-81
2021/05/22 13:33:14;;;;;;;2.63;1.40;;;22.10;1.00;;;;;;4988168;28;20469;-83
2021/05/22 13:35:42;;;;;;;2.50;1.87;;;21.40;1.00;;;;;;5012369;28;20485;-80
2021/05/22 13:38:09;;;;;;;1.70;1.50;;;20.60;1.00;;;;;;5008503;28;20495;-81
2021/05/22 13:40:37;;;;;;;5.00;1.47;;;20.00;1.00;;;;;;5011177;28;20452;-81
2021/05/22 13:43:08;;;;;;;3.20;2.83;;;19.70;1.00;;;;;;5004356;28;20592;-82
2021/05/22 13:45:34;;;;;;;2.23;0.90;;;20.60;1.00;;;;;;5011282;28;20441;-80
2021/05/22 13:48:00;;;;;;;1.23;0.70;;;21.40;1.00;;;;;;5014215;28;24059;-82
2021/05/22 13:50:26;;;;;;;3.10;1.10;;;20.90;1.00;;;;;;5010791;28;20491;-79
2021/05/22 13:52:53;;;;;;;2.67;0.83;;;20.80;1.00;;;;;;5016284;28;20458;-81
2021/05/22 13:55:21;;;;;;;6.20;1.40;;;20.80;1.00;;;;;;5006981;28;20504;-81